Time;durP1;ratioP1;P1;durP2;ratioP2;P2;SDS_P1;SDS_P2;PMS_P1;PMS_P2;Temp;Humidity;BMP_temperature;BMP_pressure;BME280_temperature;BME280_humidity;BME280_pressure;Samples;Min_cycle;Max_cycle;Signal;HPM_P1;HPM_P2
2023/04/07 00:00:41;;;;;;;18.02;6.50;;;;;;;10.42;49.41;98756.28;5092435;28;20393;-52
2023/04/07 00:03:07;;;;;;;8.82;6.10;;;;;;;10.42;49.56;98758.09;5107471;28;20051;-51
2023/04/07 00:05:33;;;;;;;9.32;5.95;;;;;;;10.46;49.39;98754.06;5107975;28;20019;-52
2023/04/07 00:07:59;;;;;;;11.30;4.95;;;;;;;10.51;49.54;98755.09;5092314;28;20456;-52
2023/04/07 00:10:25;;;;;;;8.23;6.57;;;;;;;10.50;49.20;98748.25;5107871;28;20043;-52
2023/04/07 00:12:51;;;;;;;12.18;5.40;;;;;;;10.35;49.30;98747.59;5107862;28;20024;-52
2023/04/07 00:15:17;;;;;;;10.27;5.22;;;;;;;10.25;49.85;98747.13;5090993;28;20036;-52
2023/04/07 00:17:42;;;;;;;13.65;6.85;;;;;;;10.09;49.66;98758.75;5092214;28;20081;-51
2023/04/07 00:20:08;;;;;;;15.25;6.25;;;;;;;9.85;49.96;98754.81;5107747;28;20058;-52
2023/04/07 00:22:34;;;;;;;11.00;6.85;;;;;;;9.76;50.72;98747.13;5092102;28;20561;-52
2023/04/07 00:24:59;;;;;;;12.57;6.32;;;;;;;9.62;51.23;98747.22;5107802;28;20024;-51
2023/04/07 00:27:25;;;;;;;10.98;6.25;;;;;;;9.60;51.93;98742.19;5107498;28;20497;-52
2023/04/07 00:29:54;;;;;;;10.90;5.80;;;;;;;9.77;52.47;98751.34;5107635;28;20466;-52
2023/04/07 00:32:20;;;;;;;16.60;6.07;;;;;;;9.82;52.07;98756.03;5091775;28;20024;-52
2023/04/07 00:34:46;;;;;;;9.77;5.53;;;;;;;9.96;52.00;98749.84;5091870;28;20024;-52
2023/04/07 00:37:11;;;;;;;8.93;5.78;;;;;;;10.05;51.76;98752.28;5091883;28;20023;-52
2023/04/07 00:39:38;;;;;;;10.13;6.00;;;;;;;9.98;51.42;98745.22;5107563;28;20023;-52
2023/04/07 00:42:06;;;;;;;14.07;6.05;;;;;;;9.64;51.31;98746.03;5107472;28;20111;-52
2023/04/07 00:44:32;;;;;;;8.20;4.85;;;;;;;9.36;50.76;98740.81;5091847;28;20442;-52
2023/04/07 00:46:59;;;;;;;5.50;4.05;;;;;;;9.23;50.94;98746.75;5091838;28;20036;-51
2023/04/07 00:49:29;;;;;;;8.30;4.35;;;;;;;9.31;50.45;98737.94;5091744;28;20031;-52
2023/04/07 00:51:56;;;;;;;14.00;4.93;;;;;;;9.23;49.84;98736.28;5107318;28;20169;-51
2023/04/07 00:54:25;;;;;;;7.38;4.25;;;;;;;9.27;50.18;98736.72;5107371;28;20020;-52
2023/04/07 00:56:52;;;;;;;7.22;4.03;;;;;;;9.33;49.97;98735.94;5107356;28;20024;-51
2023/04/07 00:59:18;;;;;;;9.73;4.20;;;;;;;9.46;49.75;98730.00;5090483;28;20381;-52
2023/04/07 01:01:57;;;;;;;9.68;4.28;;;;;;;9.51;49.02;98732.84;5090471;28;20046;-52
2023/04/07 01:04:28;;;;;;;8.50;3.80;;;;;;;9.61;49.10;98728.06;5091958;28;20439;-52
2023/04/07 01:07:03;;;;;;;6.47;4.63;;;;;;;9.82;49.20;98728.97;5091696;28;20074;-52
2023/04/07 01:09:37;;;;;;;8.45;3.90;;;;;;;9.84;48.94;98732.22;5090408;28;20028;-52
2023/04/07 01:12:41;;;;;;;10.68;5.20;;;;;;;9.82;49.56;98735.06;5090682;28;20024;-52
2023/04/07 01:15:11;;;;;;;9.55;4.95;;;;;;;9.84;50.05;98725.19;5092157;28;20031;-52
2023/04/07 01:17:48;;;;;;;9.27;4.25;;;;;;;9.94;49.96;98723.00;5111162;28;20092;-52
2023/04/07 01:20:18;;;;;;;6.57;4.07;;;;;;;9.88;49.37;98722.97;5095490;28;20028;-52
2023/04/07 01:22:50;;;;;;;8.40;4.75;;;;;;;9.89;50.08;98720.16;5094090;28;20027;-52
2023/04/07 01:25:35;;;;;;;6.72;4.50;;;;;;;9.98;50.11;98720.81;5111351;28;20031;-52
2023/04/07 01:28:03;;;;;;;9.32;5.55;;;;;;;10.00;49.63;98716.19;5110842;28;20055;-52
2023/04/07 01:30:32;;;;;;;14.98;6.20;;;;;;;9.99;49.73;98701.44;5095224;28;20070;-52
2023/04/07 01:33:00;;;;;;;8.38;4.35;;;;;;;10.06;49.87;98696.22;5110943;28;20035;-52
2023/04/07 01:35:29;;;;;;;13.07;5.13;;;;;;;10.30;50.00;98697.53;5095144;28;20400;-52
2023/04/07 01:37:56;;;;;;;9.25;4.95;;;;;;;10.59;48.69;98693.75;5110822;28;20052;-52
2023/04/07 01:40:24;;;;;;;7.53;4.57;;;;;;;10.59;48.41;98691.94;5110657;28;20020;-52
2023/04/07 01:42:50;;;;;;;9.40;4.97;;;;;;;10.53;48.45;98686.69;5093785;28;20067;-52
2023/04/07 01:45:18;;;;;;;7.35;4.00;;;;;;;10.34;48.66;98686.47;5110601;28;20024;-52
2023/04/07 01:47:44;;;;;;;8.43;4.53;;;;;;;10.26;49.28;98681.38;5094950;28;20024;-52
2023/04/07 01:50:11;;;;;;;10.25;4.65;;;;;;;10.26;49.28;98684.00;5110533;28;20028;-52
2023/04/07 01:52:39;;;;;;;10.90;4.90;;;;;;;10.22;48.78;98689.81;5094763;28;20389;-52
2023/04/07 01:55:06;;;;;;;7.20;4.88;;;;;;;10.00;49.71;98685.53;5094704;28;20502;-52
2023/04/07 01:57:32;;;;;;;7.55;4.70;;;;;;;9.94;49.58;98682.84;5076627;28;20028;-52
2023/04/07 01:59:58;;;;;;;14.30;5.50;;;;;;;9.74;50.18;98686.22;5076584;28;20024;-52
2023/04/07 02:02:23;;;;;;;9.20;5.47;;;;;;;9.61;50.74;98675.66;5110274;28;20016;-51
2023/04/07 02:04:55;;;;;;;15.35;5.38;;;;;;;9.72;51.24;98661.22;5094624;28;20020;-52
2023/04/07 02:07:30;;;;;;;7.60;5.05;;;;;;;9.84;50.57;98656.19;5094531;28;20452;-52
2023/04/07 02:09:59;;;;;;;10.85;5.03;;;;;;;9.91;50.45;98659.66;5093273;28;20028;-51
2023/04/07 02:12:28;;;;;;;7.68;4.20;;;;;;;9.98;50.51;98665.75;5110067;28;20028;-52
2023/04/07 02:14:55;;;;;;;8.82;4.70;;;;;;;10.03;50.18;98665.16;5110125;28;20028;-52
2023/04/07 02:17:26;;;;;;;7.28;5.43;;;;;;;10.00;49.70;98669.00;5093202;28;20392;-52
2023/04/07 02:19:52;;;;;;;7.00;4.53;;;;;;;9.85;50.06;98657.84;5110112;28;20075;-52
2023/04/07 02:22:19;;;;;;;10.90;4.90;;;;;;;9.72;49.76;98656.78;5094205;28;20022;-52
2023/04/07 02:24:44;;;;;;;6.63;4.63;;;;;;;9.63;50.20;98662.38;5092928;28;20051;-52
2023/04/07 02:27:10;;;;;;;4.82;3.80;;;;;;;9.66;49.98;98667.22;5092108;28;20079;-52
2023/04/07 02:29:36;;;;;;;5.78;4.07;;;;;;;9.70;49.86;98657.97;5094164;28;20024;-52
2023/04/07 02:32:01;;;;;;;16.85;4.68;;;;;;;9.80;49.80;98664.47;5093999;28;20024;-52
2023/04/07 02:34:27;;;;;;;8.35;4.15;;;;;;;9.79;49.47;98659.41;5109785;28;20055;-52
2023/04/07 02:36:53;;;;;;;8.70;4.53;;;;;;;9.83;49.66;98655.41;5093977;28;20397;-52
2023/04/07 02:39:19;;;;;;;7.43;3.72;;;;;;;9.82;49.40;98652.97;5092639;28;20432;-52
2023/04/07 02:41:45;;;;;;;12.18;4.57;;;;;;;9.74;49.42;98646.13;5109547;28;20020;-51
2023/04/07 02:44:10;;;;;;;6.47;3.25;;;;;;;9.73;49.60;98650.53;5109548;28;20035;-52
2023/04/07 02:46:36;;;;;;;5.43;3.88;;;;;;;9.74;49.70;98643.50;5109567;28;20186;-52
2023/04/07 02:49:02;;;;;;;6.82;3.95;;;;;;;9.67;49.44;98634.78;5093767;28;20098;-52
2023/04/07 02:51:27;;;;;;;9.93;3.90;;;;;;;9.66;49.95;98630.53;5109325;28;20042;-52
2023/04/07 02:53:54;;;;;;;8.43;4.88;;;;;;;9.61;50.07;98625.88;5093925;28;20493;-51
2023/04/07 02:56:19;;;;;;;7.97;4.32;;;;;;;9.65;50.26;98629.72;5109253;28;20085;-52
2023/04/07 02:58:45;;;;;;;9.52;3.70;;;;;;;9.84;49.84;98637.84;5093589;28;20023;-52
2023/04/07 03:01:11;;;;;;;8.70;3.55;;;;;;;9.95;49.43;98625.00;5092176;28;20024;-52
2023/04/07 03:03:38;;;;;;;7.60;3.90;;;;;;;10.18;49.21;98626.44;5092163;28;20020;-52
2023/04/07 03:06:04;;;;;;;9.45;4.50;;;;;;;10.28;48.58;98632.13;5093329;28;20077;-52
2023/04/07 03:08:30;;;;;;;13.45;4.28;;;;;;;10.35;48.47;98632.16;5093605;28;20023;-51
2023/04/07 03:10:55;;;;;;;9.40;4.00;;;;;;;10.50;48.61;98631.97;5108949;28;20401;-52
2023/04/07 03:13:21;;;;;;;13.27;4.95;;;;;;;10.53;48.38;98626.34;5093260;28;20020;-52
2023/04/07 03:15:47;;;;;;;9.50;4.50;;;;;;;10.59;48.79;98621.09;5108859;28;20031;-52
2023/04/07 03:18:12;;;;;;;12.10;5.03;;;;;;;10.68;48.59;98619.06;5108823;28;20028;-52
2023/04/07 03:20:40;;;;;;;9.15;4.82;;;;;;;10.74;48.53;98617.44;5108786;28;20069;-51
2023/04/07 03:23:06;;;;;;;10.93;5.13;;;;;;;10.77;48.36;98614.41;5091736;28;20024;-52
2023/04/07 03:25:32;;;;;;;10.18;5.07;;;;;;;10.77;48.34;98609.19;5093448;28;20039;-49
2023/04/07 03:27:58;;;;;;;11.10;6.28;;;;;;;10.52;48.38;98612.41;5092747;28;20139;-51
2023/04/07 03:30:24;;;;;;;10.38;5.10;;;;;;;10.22;49.15;98624.25;5091590;28;20028;-52
2023/04/07 03:32:50;;;;;;;8.52;5.07;;;;;;;9.92;49.80;98629.81;5074785;28;20016;-52
2023/04/07 03:35:15;;;;;;;14.68;4.82;;;;;;;9.99;50.53;98628.84;5092789;28;20027;-52
2023/04/07 03:37:42;;;;;;;11.70;4.35;;;;;;;10.23;50.18;98625.88;5107812;28;20052;-52
2023/04/07 03:40:08;;;;;;;9.90;4.47;;;;;;;10.36;49.45;98626.72;5108430;28;20524;-52
2023/04/07 03:42:34;;;;;;;7.05;4.40;;;;;;;10.31;49.22;98618.63;5092716;28;20466;-52
2023/04/07 03:44:59;;;;;;;12.82;5.47;;;;;;;10.16;49.63;98613.56;5092698;28;20028;-52
2023/04/07 03:47:25;;;;;;;13.15;4.80;;;;;;;10.13;50.23;98611.31;5092694;28;20020;-52
2023/04/07 03:49:51;;;;;;;9.30;4.82;;;;;;;10.33;49.96;98610.59;5074445;28;20111;-52
2023/04/07 03:52:16;;;;;;;9.68;4.80;;;;;;;10.37;49.46;98603.91;5108214;28;20450;-52
2023/04/07 03:54:42;;;;;;;11.13;4.47;;;;;;;10.45;49.42;98606.34;5092553;28;20483;-52
2023/04/07 03:57:08;;;;;;;7.18;3.97;;;;;;;10.54;49.03;98602.53;5108131;28;20043;-52
2023/04/07 03:59:34;;;;;;;12.82;4.70;;;;;;;10.62;49.71;98587.56;5092523;28;20024;-52
2023/04/07 04:02:00;;;;;;;6.72;4.93;;;;;;;10.55;49.18;98590.22;5108029;28;20032;-52
2023/04/07 04:04:25;;;;;;;7.57;5.03;;;;;;;10.13;50.04;98594.78;5092395;28;20092;-52
2023/04/07 04:06:54;;;;;;;7.45;4.68;;;;;;;9.94;50.56;98591.09;5108054;28;20035;-52
2023/04/07 04:09:20;;;;;;;6.55;4.88;;;;;;;9.96;50.96;98595.16;5107961;28;20027;-52
2023/04/07 04:11:46;;;;;;;7.32;4.93;;;;;;;10.17;50.57;98596.00;5092212;28;20032;-52
2023/04/07 04:14:11;;;;;;;7.50;4.47;;;;;;;10.28;50.08;98607.69;5092175;28;20028;-51
2023/04/07 04:16:37;;;;;;;10.50;5.40;;;;;;;10.43;49.76;98600.50;5107925;28;20023;-52
2023/04/07 04:19:02;;;;;;;8.80;5.43;;;;;;;10.39;50.00;98594.03;5107876;28;20516;-52
2023/04/07 04:21:28;;;;;;;7.57;5.03;;;;;;;10.24;50.18;98590.75;5107855;28;20035;-52
2023/04/07 04:23:54;;;;;;;11.43;4.88;;;;;;;10.05;50.61;98592.34;5092417;28;20024;-52
2023/04/07 04:26:24;;;;;;;11.75;5.00;;;;;;;9.99;50.85;98591.31;5092082;28;20032;-52
2023/04/07 04:28:50;;;;;;;7.72;4.35;;;;;;;9.97;51.04;98588.09;5107511;28;20620;-52
2023/04/07 04:31:16;;;;;;;8.98;5.10;;;;;;;9.93;51.52;98584.25;5091893;28;20383;-52
2023/04/07 04:33:41;;;;;;;7.30;4.35;;;;;;;9.96;51.33;98589.91;5107665;28;20024;-52
2023/04/07 04:36:07;;;;;;;9.45;4.20;;;;;;;10.07;51.28;98582.47;5107558;28;20115;-52
2023/04/07 04:38:33;;;;;;;12.80;5.20;;;;;;;10.16;51.23;98584.72;5107639;28;20035;-52
2023/04/07 04:40:58;;;;;;;19.55;5.88;;;;;;;10.24;51.10;98580.25;5107501;28;20055;-52
2023/04/07 04:43:24;;;;;;;9.15;4.70;;;;;;;10.43;51.35;98574.25;5091927;28;20016;-52
2023/04/07 04:45:53;;;;;;;8.15;4.00;;;;;;;10.73;50.60;98587.75;5091873;28;20016;-51
2023/04/07 04:48:18;;;;;;;13.77;4.97;;;;;;;10.89;49.78;98591.78;5107546;28;20024;-52
2023/04/07 04:50:44;;;;;;;20.08;5.47;;;;;;;10.95;49.20;98598.84;5095472;28;20374;-52
2023/04/07 04:53:10;;;;;;;24.73;6.75;;;;;;;10.98;49.55;98603.69;5111700;28;20734;-52
2023/04/07 04:55:35;;;;;;;48.13;7.85;;;;;;;11.03;49.74;98591.75;5111677;28;20030;-52
2023/04/07 04:58:01;;;;;;;11.23;5.50;;;;;;;10.96;49.62;98583.88;5111597;28;20401;-52
2023/04/07 05:00:27;;;;;;;9.02;5.32;;;;;;;10.75;49.45;98588.38;5095901;28;20024;-52
2023/04/07 05:02:53;;;;;;;13.38;6.32;;;;;;;10.67;49.66;98593.84;5095875;28;20035;-52
2023/04/07 05:05:19;;;;;;;10.57;5.20;;;;;;;10.62;50.04;98593.63;5095725;28;20020;-52
2023/04/07 05:07:45;;;;;;;12.30;4.20;;;;;;;10.59;50.07;98594.03;5077532;28;20405;-52
2023/04/07 05:10:10;;;;;;;10.52;4.20;;;;;;;10.69;50.07;98598.88;5094363;28;20065;-52
2023/04/07 05:12:36;;;;;;;17.27;5.03;;;;;;;10.78;49.83;98595.03;5111255;28;20036;-52
2023/04/07 05:15:02;;;;;;;13.85;5.28;;;;;;;10.83;49.86;98600.47;5095534;28;20034;-52
2023/04/07 05:17:28;;;;;;;38.38;6.22;;;;;;;11.00;49.91;98595.59;5111233;28;20027;-52
2023/04/07 05:19:53;;;;;;;12.10;4.68;;;;;;;11.19;49.47;98597.38;5111496;28;20035;-52
2023/04/07 05:22:19;;;;;;;11.50;4.97;;;;;;;11.19;48.94;98593.97;5095482;28;20028;-52
2023/04/07 05:24:45;;;;;;;64.03;8.48;;;;;;;11.22;50.00;98598.78;5094069;28;20031;-52
2023/04/07 05:27:11;;;;;;;43.25;8.90;;;;;;;11.35;50.04;98608.47;5110760;28;20047;-52
2023/04/07 05:29:36;;;;;;;24.50;6.30;;;;;;;11.47;49.42;98611.22;5111321;28;20114;-52
2023/04/07 05:32:04;;;;;;;29.60;7.05;;;;;;;11.48;49.35;98600.50;5095157;28;20050;-52
2023/04/07 05:34:30;;;;;;;37.17;7.30;;;;;;;11.49;48.88;98599.50;5110889;28;20035;-52
2023/04/07 05:36:55;;;;;;;23.73;6.53;;;;;;;11.33;49.00;98610.50;5110869;28;20081;-52
2023/04/07 05:39:21;;;;;;;14.43;6.78;;;;;;;11.27;49.16;98606.88;5095166;28;20417;-52
2023/04/07 05:41:47;;;;;;;8.80;4.80;;;;;;;11.26;48.62;98613.13;5110668;28;20063;-52
2023/04/07 05:44:12;;;;;;;33.20;8.10;;;;;;;11.24;49.16;98617.78;5076847;28;20034;-52
2023/04/07 05:46:38;;;;;;;16.17;6.07;;;;;;;11.41;48.97;98612.88;5110727;28;20034;-52
2023/04/07 05:49:04;;;;;;;13.52;5.97;;;;;;;11.58;49.53;98627.16;5110648;28;20031;-52
2023/04/07 05:51:30;;;;;;;22.92;6.97;;;;;;;11.79;49.54;98626.06;5110510;28;20032;-52
2023/04/07 05:53:57;;;;;;;42.10;7.70;;;;;;;11.89;49.58;98624.84;5094890;28;20509;-49
2023/04/07 05:56:23;;;;;;;47.90;8.95;;;;;;;11.91;48.70;98628.06;5093487;28;20128;-49
2023/04/07 05:58:49;;;;;;;32.13;7.78;;;;;;;11.83;49.00;98638.78;5110471;28;20038;-49
2023/04/07 06:01:14;;;;;;;48.83;7.88;;;;;;;11.68;48.75;98649.59;5109405;28;20055;-50
2023/04/07 06:03:40;;;;;;;45.92;8.45;;;;;;;11.53;49.48;98662.97;5110368;28;20031;-49
2023/04/07 06:06:06;;;;;;;27.85;8.05;;;;;;;11.45;52.04;98665.81;5110272;28;20036;-51
2023/04/07 06:08:31;;;;;;;33.35;8.00;;;;;;;11.43;55.08;98668.66;5110241;28;20036;-52
2023/04/07 06:10:57;;;;;;;28.98;8.80;;;;;;;11.39;56.53;98673.53;5110150;28;20115;-52
2023/04/07 06:13:23;;;;;;;33.70;7.90;;;;;;;11.22;57.88;98680.22;5110184;28;20062;-52
2023/04/07 06:15:48;;;;;;;24.77;7.28;;;;;;;11.03;58.77;98681.88;5094376;28;20039;-52
2023/04/07 06:18:14;;;;;;;15.20;6.20;;;;;;;10.86;59.90;98681.44;5110378;28;20458;-52
2023/04/07 06:20:40;;;;;;;12.45;5.90;;;;;;;10.81;59.95;98683.09;5110000;28;20028;-52
2023/04/07 06:23:06;;;;;;;14.85;6.22;;;;;;;10.67;59.59;98683.06;5109976;28;20028;-52
2023/04/07 06:25:32;;;;;;;11.63;6.50;;;;;;;10.59;60.74;98693.75;5094244;28;20032;-52
2023/04/07 06:27:57;;;;;;;14.93;5.47;;;;;;;10.63;61.80;98697.59;5093990;28;20051;-52
2023/04/07 06:30:23;;;;;;;23.90;7.15;;;;;;;10.70;62.64;98693.16;5109811;28;20507;-52
2023/04/07 06:32:49;;;;;;;19.75;6.22;;;;;;;10.84;63.95;98693.16;5094013;28;20032;-52
2023/04/07 06:35:15;;;;;;;23.52;6.75;;;;;;;10.92;64.37;98695.59;5109773;28;20111;-52
2023/04/07 06:37:41;;;;;;;23.42;6.43;;;;;;;10.93;63.84;98700.66;5109651;28;20028;-52
2023/04/07 06:40:07;;;;;;;45.42;6.93;;;;;;;11.23;63.48;98715.16;5109597;28;20027;-52
2023/04/07 06:42:32;;;;;;;21.63;5.45;;;;;;;11.40;62.53;98711.09;5109660;28;20049;-51
2023/04/07 06:44:58;;;;;;;18.98;5.50;;;;;;;11.49;62.28;98706.44;5093863;28;20587;-52
2023/04/07 06:47:24;;;;;;;12.90;6.22;;;;;;;11.59;61.43;98714.72;5109509;28;20048;-52
2023/04/07 06:49:49;;;;;;;34.25;7.57;;;;;;;11.74;60.60;98717.09;5092449;28;20524;-52
2023/04/07 06:52:15;;;;;;;36.67;7.43;;;;;;;11.90;60.73;98721.13;5093653;28;20086;-49
2023/04/07 06:54:41;;;;;;;19.10;7.00;;;;;;;11.96;59.57;98720.31;5109361;28;20024;-49
2023/04/07 06:57:10;;;;;;;20.55;6.70;;;;;;;12.09;60.02;98730.78;5092355;28;20039;-49
2023/04/07 06:59:38;;;;;;;25.27;7.88;;;;;;;12.22;58.26;98734.38;5093567;28;20505;-49
2023/04/07 07:02:06;;;;;;;21.42;7.00;;;;;;;12.17;58.36;98733.16;5109111;28;20115;-49
2023/04/07 07:04:33;;;;;;;18.42;6.50;;;;;;;12.10;57.05;98732.38;5093529;28;20039;-49
2023/04/07 07:06:58;;;;;;;14.18;6.70;;;;;;;11.94;56.48;98727.59;5109101;28;20069;-49
2023/04/07 07:09:26;;;;;;;12.90;5.88;;;;;;;12.00;55.18;98734.66;5093461;28;20136;-50
2023/04/07 07:11:52;;;;;;;20.23;7.03;;;;;;;12.16;55.85;98738.63;5093376;28;20028;-49
2023/04/07 07:14:17;;;;;;;17.40;7.43;;;;;;;12.39;54.42;98738.94;5108954;28;20039;-49
2023/04/07 07:16:43;;;;;;;13.68;5.85;;;;;;;12.58;53.69;98741.66;5108928;28;20052;-49
2023/04/07 07:19:09;;;;;;;14.95;5.82;;;;;;;12.86;53.45;98745.72;5091907;28;20039;-49
2023/04/07 07:21:35;;;;;;;18.27;6.68;;;;;;;12.97;52.72;98747.69;5093274;28;20387;-49
2023/04/07 07:24:00;;;;;;;28.90;6.57;;;;;;;13.29;52.04;98745.81;5108793;28;20497;-49
2023/04/07 07:26:26;;;;;;;18.98;6.53;;;;;;;13.57;50.88;98744.56;5108715;28;20047;-49
2023/04/07 07:28:52;;;;;;;19.60;6.18;;;;;;;13.93;49.99;98742.97;5108578;28;20070;-49
2023/04/07 07:31:18;;;;;;;22.25;6.35;;;;;;;14.34;48.82;98739.59;5108547;28;20043;-49
2023/04/07 07:33:45;;;;;;;20.33;6.10;;;;;;;14.71;47.22;98744.03;5092851;28;20024;-49
2023/04/07 07:36:11;;;;;;;11.52;5.30;;;;;;;14.91;46.67;98738.44;5092834;28;20027;-49
2023/04/07 07:38:37;;;;;;;19.55;7.07;;;;;;;14.93;45.88;98737.19;5108521;28;20156;-49
2023/04/07 07:41:03;;;;;;;13.88;5.90;;;;;;;14.93;45.74;98742.47;5108431;28;20481;-49
2023/04/07 07:43:29;;;;;;;21.17;6.68;;;;;;;14.73;45.57;98744.63;5092773;28;20124;-50
2023/04/07 07:45:54;;;;;;;13.73;5.75;;;;;;;14.67;44.96;98734.94;5108266;28;20512;-50
2023/04/07 07:48:20;;;;;;;21.25;6.80;;;;;;;14.57;44.83;98738.13;5092715;28;20060;-49
2023/04/07 07:50:47;;;;;;;13.07;5.97;;;;;;;14.66;44.41;98744.69;5108212;28;20028;-50
2023/04/07 07:53:14;;;;;;;15.88;7.47;;;;;;;14.78;44.80;98750.00;5108302;28;20028;-49
2023/04/07 07:55:40;;;;;;;13.60;5.88;;;;;;;14.94;44.41;98749.34;5108171;28;20024;-49
2023/04/07 07:58:05;;;;;;;11.70;5.63;;;;;;;15.15;43.93;98763.06;5091485;28;20031;-49
2023/04/07 08:00:31;;;;;;;25.02;5.90;;;;;;;15.60;43.32;98756.44;5092484;28;20055;-49
2023/04/07 08:02:57;;;;;;;24.27;6.10;;;;;;;16.02;42.88;98751.78;5108076;28;20073;-50
2023/04/07 08:05:23;;;;;;;12.50;6.07;;;;;;;16.03;42.00;98761.31;5108396;28;20035;-50
2023/04/07 08:07:48;;;;;;;16.35;6.22;;;;;;;16.28;41.29;98758.41;5107996;28;20024;-49
2023/04/07 08:10:14;;;;;;;30.10;9.23;;;;;;;16.73;40.64;98751.53;5092307;28;20473;-49
2023/04/07 08:12:40;;;;;;;10.38;6.22;;;;;;;17.12;39.96;98754.31;5091141;28;20398;-49
2023/04/07 08:15:08;;;;;;;15.93;6.22;;;;;;;17.76;38.96;98749.41;5107845;28;20031;-50
2023/04/07 08:17:35;;;;;;;12.52;5.93;;;;;;;18.69;37.84;98747.81;5092130;28;20024;-47
2023/04/07 08:20:02;;;;;;;12.82;5.18;;;;;;;18.96;36.79;98742.50;5107749;28;20035;-47
2023/04/07 08:22:28;;;;;;;15.55;5.30;;;;;;;19.09;37.19;98743.94;5092178;28;20031;-47
2023/04/07 08:24:54;;;;;;;13.68;5.38;;;;;;;20.05;35.66;98748.25;5091655;28;20482;-48
2023/04/07 08:27:20;;;;;;;12.38;5.50;;;;;;;21.37;33.41;98737.19;5090554;28;20529;-48
2023/04/07 08:29:57;;;;;;;9.15;4.82;;;;;;;22.46;32.64;98737.38;5092088;28;20541;-48
2023/04/07 08:32:22;;;;;;;13.15;4.40;;;;;;;23.24;31.35;98738.41;5090622;28;20028;-47
2023/04/07 08:34:48;;;;;;;13.65;5.72;;;;;;;23.44;30.89;98744.66;5107533;28;20031;-48
2023/04/07 08:37:14;;;;;;;14.85;4.53;;;;;;;23.63;30.36;98747.41;5107634;28;20219;-48
2023/04/07 08:39:40;;;;;;;8.40;4.05;;;;;;;25.46;28.57;98745.91;5107589;28;20489;-48
2023/04/07 08:42:07;;;;;;;6.53;3.97;;;;;;;27.55;25.67;98743.44;5107550;28;20024;-47
2023/04/07 08:44:37;;;;;;;16.98;4.30;;;;;;;27.24;25.30;98750.41;5107551;28;20039;-48
2023/04/07 08:47:06;;;;;;;9.23;3.97;;;;;;;27.95;24.99;98746.94;5107501;28;20119;-48
2023/04/07 08:49:35;;;;;;;10.15;3.80;;;;;;;28.93;24.09;98746.69;5091806;28;20024;-48
2023/04/07 08:52:05;;;;;;;13.25;3.80;;;;;;;29.97;23.02;98743.63;5107345;28;20508;-48
2023/04/07 08:54:32;;;;;;;13.30;5.00;;;;;;;30.54;22.08;98744.22;5107506;28;20024;-48
2023/04/07 08:56:58;;;;;;;22.15;3.40;;;;;;;30.65;21.33;98743.50;5091984;28;20077;-48
2023/04/07 08:59:28;;;;;;;8.50;3.42;;;;;;;31.17;20.95;98741.41;5090438;28;20436;-48
2023/04/07 09:01:54;;;;;;;16.45;3.65;;;;;;;30.80;20.86;98742.06;5091642;28;20486;-48
2023/04/07 09:04:21;;;;;;;7.63;3.63;;;;;;;28.73;22.11;98748.13;5091752;28;20032;-47
2023/04/07 09:06:48;;;;;;;9.77;3.13;;;;;;;26.91;24.42;98741.81;5107353;28;20028;-48
2023/04/07 09:09:13;;;;;;;7.38;2.75;;;;;;;26.84;24.94;98742.25;5090438;28;20060;-48
2023/04/07 09:11:40;;;;;;;7.30;2.75;;;;;;;26.67;24.56;98736.72;5090224;28;20119;-47
2023/04/07 09:14:06;;;;;;;14.00;3.42;;;;;;;25.52;26.01;98739.34;5073508;28;20113;-48
2023/04/07 09:16:32;;;;;;;10.10;2.92;;;;;;;24.44;26.93;98742.13;5091552;28;20032;-47
2023/04/07 09:18:58;;;;;;;11.75;3.45;;;;;;;24.68;27.35;98752.81;5090250;28;20032;-47
2023/04/07 09:21:24;;;;;;;5.07;2.70;;;;;;;26.39;25.90;98739.47;5091612;28;20426;-47
2023/04/07 09:23:50;;;;;;;7.15;2.80;;;;;;;26.54;25.51;98735.66;5091516;28;20107;-48
2023/04/07 09:26:21;;;;;;;22.15;4.25;;;;;;;28.00;24.28;98736.00;5107179;28;20028;-48
2023/04/07 09:28:51;;;;;;;4.45;3.00;;;;;;;27.94;23.75;98726.44;5090008;28;20425;-48
2023/04/07 09:31:19;;;;;;;12.02;3.72;;;;;;;26.87;24.31;98732.75;5107116;28;20035;-48
2023/04/07 09:33:46;;;;;;;14.57;4.32;;;;;;;25.70;26.16;98736.88;5091416;28;20050;-48
2023/04/07 09:36:12;;;;;;;12.63;3.50;;;;;;;27.59;24.75;98733.63;5107963;28;20529;-48
2023/04/07 09:38:40;;;;;;;59.85;6.75;;;;;;;29.61;22.83;98722.47;5095152;28;20106;-48
2023/04/07 09:41:15;;;;;;;7.90;3.20;;;;;;;30.53;20.85;98723.69;5110792;28;20028;-48
2023/04/07 09:43:45;;;;;;;5.82;2.42;;;;;;;28.39;21.41;98728.91;5095137;28;20095;-48
2023/04/07 09:46:16;;;;;;;7.95;2.60;;;;;;;26.30;23.98;98735.94;5076861;28;20085;-48
2023/04/07 09:48:44;;;;;;;6.97;2.00;;;;;;;24.34;24.52;98735.03;5095045;28;20020;-47
2023/04/07 09:51:17;;;;;;;7.18;2.55;;;;;;;22.58;26.06;98739.72;5110494;28;20431;-47
2023/04/07 09:53:48;;;;;;;4.63;2.13;;;;;;;21.37;27.89;98750.56;5095110;28;20055;-47
2023/04/07 09:56:16;;;;;;;8.82;2.53;;;;;;;22.84;27.48;98737.66;5110525;28;20035;-47
2023/04/07 09:58:45;;;;;;;8.18;1.90;;;;;;;25.67;24.00;98732.06;5110454;28;20123;-47
2023/04/07 10:01:11;;;;;;;7.22;1.80;;;;;;;28.02;21.60;98719.50;5110381;28;20118;-48
2023/04/07 10:03:38;;;;;;;4.43;1.70;;;;;;;29.73;19.74;98713.72;5094719;28;20489;-48
2023/04/07 10:06:06;;;;;;;4.93;1.77;;;;;;;31.23;17.98;98705.63;5094643;28;20031;-48
2023/04/07 10:08:36;;;;;;;11.30;1.75;;;;;;;30.13;17.36;98703.25;5110258;28;20089;-48
2023/04/07 10:11:04;;;;;;;13.45;1.67;;;;;;;30.20;16.77;98700.00;5110241;28;20036;-48
2023/04/07 10:13:31;;;;;;;7.40;1.48;;;;;;;30.81;16.03;98689.47;5094714;28;20594;-47
2023/04/07 10:15:58;;;;;;;7.70;1.70;;;;;;;31.62;14.76;98683.63;5093246;28;20039;-47
2023/04/07 10:18:32;;;;;;;5.80;1.40;;;;;;;31.78;15.43;98689.13;5110102;28;20489;-48
2023/04/07 10:21:03;;;;;;;5.95;1.30;;;;;;;31.52;14.92;98687.56;5094338;28;20544;-48
2023/04/07 10:23:42;;;;;;;5.47;1.40;;;;;;;31.66;15.49;98684.50;5094238;28;20044;-48
2023/04/07 10:26:09;;;;;;;6.05;0.98;;;;;;;31.62;13.54;98681.69;5109992;28;20027;-48
2023/04/07 10:28:40;;;;;;;5.95;1.20;;;;;;;31.36;14.20;98681.22;5109734;28;20052;-48
2023/04/07 10:31:06;;;;;;;6.65;1.38;;;;;;;30.34;14.63;98684.31;5109869;28;20390;-48
2023/04/07 10:33:47;;;;;;;3.75;1.55;;;;;;;28.84;16.13;98685.34;5093120;28;20024;-48
2023/04/07 10:36:13;;;;;;;5.68;1.33;;;;;;;29.37;15.88;98675.19;5094014;28;20127;-48
2023/04/07 10:38:38;;;;;;;7.70;1.60;;;;;;;30.43;15.36;98671.50;5109712;28;20123;-48
2023/04/07 10:41:34;;;;;;;8.95;1.52;;;;;;;31.69;14.74;98659.41;5092973;28;20078;-48
2023/04/07 10:43:59;;;;;;;6.38;1.42;;;;;;;32.89;13.24;98658.88;5093903;28;20047;-48
2023/04/07 10:46:50;;;;;;;3.38;1.23;;;;;;;33.67;12.64;98660.03;5092648;28;20032;-45
2023/04/07 10:49:17;;;;;;;8.68;1.42;;;;;;;33.11;12.93;98655.59;5086581;28;20473;-45
2023/04/07 10:51:43;;;;;;;7.75;1.83;;;;;;;31.13;14.31;98661.88;5092357;28;20093;-48
2023/04/07 10:54:21;;;;;;;6.30;1.38;;;;;;;29.44;15.46;98658.47;5109482;28;20036;-48
2023/04/07 10:57:02;;;;;;;9.63;1.55;;;;;;;28.51;16.03;98670.78;5109286;28;20027;-48
2023/04/07 10:59:29;;;;;;;14.70;1.77;;;;;;;27.80;16.80;98669.13;5093582;28;20035;-48
2023/04/07 11:02:13;;;;;;;4.00;1.10;;;;;;;27.11;17.63;98662.38;5109228;28;20404;-47
2023/04/07 11:04:44;;;;;;;5.80;1.40;;;;;;;26.60;17.41;98663.66;5109212;28;20409;-47
2023/04/07 11:07:11;;;;;;;5.05;1.45;;;;;;;26.24;17.86;98664.47;5109129;28;20122;-48
2023/04/07 11:09:37;;;;;;;8.18;1.20;;;;;;;25.88;18.03;98659.88;5092127;28;20032;-47
2023/04/07 11:12:03;;;;;;;5.72;1.40;;;;;;;25.78;18.27;98660.09;5093318;28;20039;-47
2023/04/07 11:14:31;;;;;;;4.47;1.20;;;;;;;26.35;18.06;98651.59;5092053;28;20039;-47
2023/04/07 11:17:00;;;;;;;7.88;1.52;;;;;;;25.88;17.75;98666.03;5108929;28;20446;-47
2023/04/07 11:19:26;;;;;;;10.23;1.50;;;;;;;25.50;18.53;98655.53;5093485;28;20031;-47
2023/04/07 11:22:15;;;;;;;12.07;1.90;;;;;;;25.94;18.52;98661.38;5093184;28;20028;-47
2023/04/07 11:24:42;;;;;;;10.30;1.63;;;;;;;26.65;17.93;98658.16;5093182;28;20436;-47
2023/04/07 11:27:14;;;;;;;5.95;1.90;;;;;;;27.23;17.28;98659.94;5092856;28;20135;-47
2023/04/07 11:29:40;;;;;;;6.57;1.85;;;;;;;26.64;17.57;98653.88;5093068;28;20548;-47
2023/04/07 11:32:06;;;;;;;9.82;1.80;;;;;;;26.16;18.31;98654.44;5108559;28;20032;-47